sensor_id;sensor_type;location;lat;lon;timestamp;pressure;altitude;pressure_sealevel;temperature;humidity
27840;BME280;15207;42.182;24.308;2023-10-08T00:01:14;99520.69;;;13.98;58.96
27840;BME280;15207;42.182;24.308;2023-10-08T00:03:44;99502.84;;;14.07;58.48
27840;BME280;15207;42.182;24.308;2023-10-08T00:06:20;99512.06;;;14.14;58.36
27840;BME280;15207;42.182;24.308;2023-10-08T00:08:49;99512.34;;;14.21;58.14
27840;BME280;15207;42.182;24.308;2023-10-08T00:11:15;99497.13;;;13.81;58.50
27840;BME280;15207;42.182;24.308;2023-10-08T00:13:43;99511.88;;;13.55;59.43
27840;BME280;15207;42.182;24.308;2023-10-08T00:16:11;99503.66;;;13.47;59.57
27840;BME280;15207;42.182;24.308;2023-10-08T00:18:41;99502.41;;;13.51;59.82
27840;BME280;15207;42.182;24.308;2023-10-08T00:21:13;99496.81;;;13.43;60.58
27840;BME280;15207;42.182;24.308;2023-10-08T00:23:39;99489.41;;;13.04;61.85
27840;BME280;15207;42.182;24.308;2023-10-08T00:26:08;99499.97;;;13.17;61.72
27840;BME280;15207;42.182;24.308;2023-10-08T00:28:34;99496.72;;;13.23;61.99
27840;BME280;15207;42.182;24.308;2023-10-08T00:31:02;99495.16;;;13.20;62.16
27840;BME280;15207;42.182;24.308;2023-10-08T00:33:40;99501.28;;;13.01;60.22
27840;BME280;15207;42.182;24.308;2023-10-08T00:36:09;99505.50;;;12.73;61.11
27840;BME280;15207;42.182;24.308;2023-10-08T00:38:49;99510.38;;;12.67;63.03
27840;BME280;15207;42.182;24.308;2023-10-08T00:41:25;99501.72;;;12.64;64.85
27840;BME280;15207;42.182;24.308;2023-10-08T00:43:56;99503.13;;;12.79;64.76
27840;BME280;15207;42.182;24.308;2023-10-08T00:46:22;99498.97;;;12.96;63.34
27840;BME280;15207;42.182;24.308;2023-10-08T00:48:58;99496.50;;;13.05;62.19
27840;BME280;15207;42.182;24.308;2023-10-08T00:51:36;99499.00;;;13.28;61.05
27840;BME280;15207;42.182;24.308;2023-10-08T00:54:06;99493.34;;;13.52;60.03
27840;BME280;15207;42.182;24.308;2023-10-08T00:56:35;99490.59;;;13.83;59.38
27840;BME280;15207;42.182;24.308;2023-10-08T00:59:21;99497.00;;;13.92;58.86
27840;BME280;15207;42.182;24.308;2023-10-08T01:01:48;99490.47;;;13.85;60.47
27840;BME280;15207;42.182;24.308;2023-10-08T01:06:43;99490.16;;;13.88;59.25
27840;BME280;15207;42.182;24.308;2023-10-08T01:09:08;99492.59;;;13.91;57.92
27840;BME280;15207;42.182;24.308;2023-10-08T01:11:44;99483.25;;;13.95;57.13
27840;BME280;15207;42.182;24.308;2023-10-08T01:14:16;99484.13;;;13.96;56.64
27840;BME280;15207;42.182;24.308;2023-10-08T01:16:46;99480.16;;;14.10;55.58
27840;BME280;15207;42.182;24.308;2023-10-08T01:19:17;99479.72;;;13.95;55.92
27840;BME280;15207;42.182;24.308;2023-10-08T01:21:44;99477.13;;;13.73;56.81
27840;BME280;15207;42.182;24.308;2023-10-08T01:24:10;99484.94;;;13.45;56.58
27840;BME280;15207;42.182;24.308;2023-10-08T01:26:39;99478.72;;;12.92;58.58
27840;BME280;15207;42.182;24.308;2023-10-08T01:29:09;99481.69;;;12.68;60.04
27840;BME280;15207;42.182;24.308;2023-10-08T01:31:36;99477.47;;;12.33;61.86
27840;BME280;15207;42.182;24.308;2023-10-08T01:34:02;99474.72;;;12.11;63.07
27840;BME280;15207;42.182;24.308;2023-10-08T01:36:30;99470.25;;;11.89;64.20
27840;BME280;15207;42.182;24.308;2023-10-08T01:38:56;99481.63;;;11.70;65.51
27840;BME280;15207;42.182;24.308;2023-10-08T01:41:22;99479.34;;;11.42;66.80
27840;BME280;15207;42.182;24.308;2023-10-08T01:43:56;99472.53;;;11.27;67.71
27840;BME280;15207;42.182;24.308;2023-10-08T01:46:25;99472.06;;;11.21;68.21
27840;BME280;15207;42.182;24.308;2023-10-08T01:48:52;99466.44;;;11.24;68.09
27840;BME280;15207;42.182;24.308;2023-10-08T01:51:40;99458.16;;;11.16;68.73
27840;BME280;15207;42.182;24.308;2023-10-08T01:54:13;99454.50;;;11.17;68.78
27840;BME280;15207;42.182;24.308;2023-10-08T01:56:43;99455.38;;;11.18;68.77
27840;BME280;15207;42.182;24.308;2023-10-08T01:59:13;99461.19;;;11.11;68.59
27840;BME280;15207;42.182;24.308;2023-10-08T02:01:44;99463.25;;;11.08;68.62
27840;BME280;15207;42.182;24.308;2023-10-08T02:04:13;99464.34;;;10.94;68.96
27840;BME280;15207;42.182;24.308;2023-10-08T02:06:41;99459.88;;;11.06;68.62
27840;BME280;15207;42.182;24.308;2023-10-08T02:09:06;99447.91;;;10.98;69.08
27840;BME280;15207;42.182;24.308;2023-10-08T02:11:48;99449.75;;;11.09;69.10
27840;BME280;15207;42.182;24.308;2023-10-08T02:14:19;99454.13;;;11.22;68.52
27840;BME280;15207;42.182;24.308;2023-10-08T02:16:46;99449.63;;;11.22;68.34
27840;BME280;15207;42.182;24.308;2023-10-08T02:19:12;99452.78;;;11.16;68.19
27840;BME280;15207;42.182;24.308;2023-10-08T02:21:39;99456.53;;;10.91;69.43
27840;BME280;15207;42.182;24.308;2023-10-08T02:24:07;99445.91;;;10.66;70.48
27840;BME280;15207;42.182;24.308;2023-10-08T02:26:34;99449.41;;;10.44;72.38
27840;BME280;15207;42.182;24.308;2023-10-08T02:29:03;99443.94;;;10.57;72.79
27840;BME280;15207;42.182;24.308;2023-10-08T02:31:37;99450.31;;;10.79;72.15
27840;BME280;15207;42.182;24.308;2023-10-08T02:34:03;99459.34;;;10.89;71.94
27840;BME280;15207;42.182;24.308;2023-10-08T02:36:29;99450.34;;;11.02;72.03
27840;BME280;15207;42.182;24.308;2023-10-08T02:38:56;99454.00;;;11.01;71.96
27840;BME280;15207;42.182;24.308;2023-10-08T02:41:21;99452.31;;;11.11;71.75
27840;BME280;15207;42.182;24.308;2023-10-08T02:43:49;99455.59;;;11.26;70.08
27840;BME280;15207;42.182;24.308;2023-10-08T02:46:15;99451.09;;;11.27;69.87
27840;BME280;15207;42.182;24.308;2023-10-08T02:48:41;99457.53;;;11.35;69.78
27840;BME280;15207;42.182;24.308;2023-10-08T02:51:07;99456.81;;;11.33;69.64
27840;BME280;15207;42.182;24.308;2023-10-08T02:53:39;99448.75;;;11.45;68.83
27840;BME280;15207;42.182;24.308;2023-10-08T02:56:07;99448.72;;;11.56;67.99
27840;BME280;15207;42.182;24.308;2023-10-08T02:58:39;99453.47;;;11.64;67.55
27840;BME280;15207;42.182;24.308;2023-10-08T03:01:04;99449.94;;;11.75;66.89
27840;BME280;15207;42.182;24.308;2023-10-08T03:03:30;99450.03;;;11.73;66.01
27840;BME280;15207;42.182;24.308;2023-10-08T03:05:57;99449.06;;;11.86;65.52
27840;BME280;15207;42.182;24.308;2023-10-08T03:08:23;99441.81;;;11.98;64.35
27840;BME280;15207;42.182;24.308;2023-10-08T03:10:50;99440.09;;;12.08;64.00
27840;BME280;15207;42.182;24.308;2023-10-08T03:13:27;99431.88;;;12.21;63.62
27840;BME280;15207;42.182;24.308;2023-10-08T03:15:53;99433.69;;;12.21;63.97
27840;BME280;15207;42.182;24.308;2023-10-08T03:18:28;99429.84;;;12.35;61.95
27840;BME280;15207;42.182;24.308;2023-10-08T03:21:15;99435.28;;;12.23;61.75
27840;BME280;15207;42.182;24.308;2023-10-08T03:23:59;99433.00;;;12.19;61.79
27840;BME280;15207;42.182;24.308;2023-10-08T03:26:25;99426.94;;;11.94;61.53
27840;BME280;15207;42.182;24.308;2023-10-08T03:28:56;99438.91;;;11.89;62.39
27840;BME280;15207;42.182;24.308;2023-10-08T03:31:25;99441.28;;;11.71;62.62
27840;BME280;15207;42.182;24.308;2023-10-08T03:34:10;99443.00;;;11.61;63.24
27840;BME280;15207;42.182;24.308;2023-10-08T03:36:40;99445.34;;;11.43;64.35
27840;BME280;15207;42.182;24.308;2023-10-08T03:39:15;99443.16;;;11.36;64.85
27840;BME280;15207;42.182;24.308;2023-10-08T03:41:44;99438.53;;;11.38;65.47
27840;BME280;15207;42.182;24.308;2023-10-08T03:44:23;99431.22;;;11.29;65.83
27840;BME280;15207;42.182;24.308;2023-10-08T03:46:49;99439.84;;;11.44;65.95
27840;BME280;15207;42.182;24.308;2023-10-08T03:49:17;99425.81;;;11.52;65.95
27840;BME280;15207;42.182;24.308;2023-10-08T03:51:45;99429.72;;;11.59;65.66
27840;BME280;15207;42.182;24.308;2023-10-08T03:54:11;99428.06;;;11.80;65.37
27840;BME280;15207;42.182;24.308;2023-10-08T03:56:40;99439.59;;;11.70;63.84
27840;BME280;15207;42.182;24.308;2023-10-08T03:59:14;99426.31;;;11.57;64.13
27840;BME280;15207;42.182;24.308;2023-10-08T04:01:46;99432.56;;;11.46;64.72
27840;BME280;15207;42.182;24.308;2023-10-08T04:04:14;99434.13;;;11.49;65.05
27840;BME280;15207;42.182;24.308;2023-10-08T04:06:42;99438.16;;;11.43;65.93
27840;BME280;15207;42.182;24.308;2023-10-08T04:09:14;99422.31;;;11.40;65.96
27840;BME280;15207;42.182;24.308;2023-10-08T04:11:50;99440.81;;;11.43;65.73
27840;BME280;15207;42.182;24.308;2023-10-08T04:14:23;99437.53;;;11.40;65.56
27840;BME280;15207;42.182;24.308;2023-10-08T04:16:50;99434.72;;;11.53;65.50
27840;BME280;15207;42.182;24.308;2023-10-08T04:19:19;99438.25;;;11.42;65.40
27840;BME280;15207;42.182;24.308;2023-10-08T04:21:46;99443.63;;;11.42;65.71
27840;BME280;15207;42.182;24.308;2023-10-08T04:24:19;99439.13;;;11.08;66.30
27840;BME280;15207;42.182;24.308;2023-10-08T04:26:45;99436.72;;;11.05;67.05
27840;BME280;15207;42.182;24.308;2023-10-08T04:29:10;99441.69;;;11.09;67.71
27840;BME280;15207;42.182;24.308;2023-10-08T04:31:41;99424.66;;;11.10;67.23
27840;BME280;15207;42.182;24.308;2023-10-08T04:34:12;99430.13;;;11.09;66.73
27840;BME280;15207;42.182;24.308;2023-10-08T04:36:47;99434.88;;;11.05;66.65
27840;BME280;15207;42.182;24.308;2023-10-08T04:39:19;99435.38;;;10.99;67.01
27840;BME280;15207;42.182;24.308;2023-10-08T04:41:48;99432.94;;;11.07;66.75
27840;BME280;15207;42.182;24.308;2023-10-08T04:44:19;99437.94;;;11.01;66.70
27840;BME280;15207;42.182;24.308;2023-10-08T04:46:46;99439.41;;;11.05;66.63
27840;BME280;15207;42.182;24.308;2023-10-08T04:49:16;99445.97;;;11.12;65.91
27840;BME280;15207;42.182;24.308;2023-10-08T04:52:02;99447.91;;;11.21;66.09
27840;BME280;15207;42.182;24.308;2023-10-08T04:54:39;99442.53;;;11.33;65.80
27840;BME280;15207;42.182;24.308;2023-10-08T04:57:17;99445.59;;;11.40;65.83
27840;BME280;15207;42.182;24.308;2023-10-08T04:59:44;99448.50;;;11.59;64.70
27840;BME280;15207;42.182;24.308;2023-10-08T05:02:12;99431.78;;;11.67;64.05
27840;BME280;15207;42.182;24.308;2023-10-08T05:04:37;99436.63;;;11.85;63.36
27840;BME280;15207;42.182;24.308;2023-10-08T05:07:18;99435.00;;;11.94;62.73
27840;BME280;15207;42.182;24.308;2023-10-08T05:09:47;99426.69;;;12.08;61.95
27840;BME280;15207;42.182;24.308;2023-10-08T05:12:13;99429.44;;;12.18;61.48
27840;BME280;15207;42.182;24.308;2023-10-08T05:14:54;99434.50;;;12.33;62.24
27840;BME280;15207;42.182;24.308;2023-10-08T05:17:44;99429.94;;;12.66;59.10
27840;BME280;15207;42.182;24.308;2023-10-08T05:20:19;99424.28;;;12.69;59.83
27840;BME280;15207;42.182;24.308;2023-10-08T05:23:12;99423.22;;;12.81;58.84
27840;BME280;15207;42.182;24.308;2023-10-08T05:25:51;99418.19;;;12.88;58.13
27840;BME280;15207;42.182;24.308;2023-10-08T05:28:33;99414.59;;;13.09;57.40
27840;BME280;15207;42.182;24.308;2023-10-08T05:31:13;99405.56;;;13.20;56.65
27840;BME280;15207;42.182;24.308;2023-10-08T05:33:40;99400.69;;;13.45;55.81
27840;BME280;15207;42.182;24.308;2023-10-08T05:36:24;99406.16;;;13.74;55.08
27840;BME280;15207;42.182;24.308;2023-10-08T05:39:10;99412.84;;;13.90;55.30
27840;BME280;15207;42.182;24.308;2023-10-08T05:42:04;99407.16;;;14.13;53.87
27840;BME280;15207;42.182;24.308;2023-10-08T05:44:43;99404.91;;;14.28;53.35
27840;BME280;15207;42.182;24.308;2023-10-08T05:47:32;99409.81;;;14.62;52.56
27840;BME280;15207;42.182;24.308;2023-10-08T05:49:57;99406.84;;;14.75;53.14
27840;BME280;15207;42.182;24.308;2023-10-08T05:52:44;99406.72;;;15.05;52.46
27840;BME280;15207;42.182;24.308;2023-10-08T05:55:19;99410.09;;;15.17;51.30
27840;BME280;15207;42.182;24.308;2023-10-08T05:58:06;99416.44;;;15.54;50.85
27840;BME280;15207;42.182;24.308;2023-10-08T06:00:45;99420.16;;;15.71;49.92
27840;BME280;15207;42.182;24.308;2023-10-08T06:03:13;99413.50;;;15.93;49.54
27840;BME280;15207;42.182;24.308;2023-10-08T06:05:59;99410.72;;;16.21;47.50
27840;BME280;15207;42.182;24.308;2023-10-08T06:08:39;99413.94;;;16.43;46.60
27840;BME280;15207;42.182;24.308;2023-10-08T06:11:32;99412.59;;;16.65;45.45
27840;BME280;15207;42.182;24.308;2023-10-08T06:14:21;99413.38;;;16.84;45.48
27840;BME280;15207;42.182;24.308;2023-10-08T06:17:18;99404.25;;;17.12;44.34
27840;BME280;15207;42.182;24.308;2023-10-08T06:20:01;99406.03;;;17.29;44.71
27840;BME280;15207;42.182;24.308;2023-10-08T06:22:35;99402.25;;;17.57;40.77
27840;BME280;15207;42.182;24.308;2023-10-08T06:25:00;99396.22;;;17.80;39.06
27840;BME280;15207;42.182;24.308;2023-10-08T06:27:42;99396.91;;;17.90;40.66
27840;BME280;15207;42.182;24.308;2023-10-08T06:30:11;99406.91;;;18.06;39.80
27840;BME280;15207;42.182;24.308;2023-10-08T06:32:43;99399.47;;;18.17;39.96
27840;BME280;15207;42.182;24.308;2023-10-08T06:35:09;99405.59;;;18.19;39.84
27840;BME280;15207;42.182;24.308;2023-10-08T06:37:43;99391.19;;;18.27;39.55
27840;BME280;15207;42.182;24.308;2023-10-08T06:40:11;99400.16;;;18.35;41.72
27840;BME280;15207;42.182;24.308;2023-10-08T06:42:56;99397.78;;;18.41;40.03
27840;BME280;15207;42.182;24.308;2023-10-08T06:45:22;99412.19;;;18.66;39.49
27840;BME280;15207;42.182;24.308;2023-10-08T06:47:48;99406.38;;;18.86;39.95
27840;BME280;15207;42.182;24.308;2023-10-08T06:50:15;99412.78;;;19.01;38.77
27840;BME280;15207;42.182;24.308;2023-10-08T06:52:41;99409.38;;;19.16;37.25
27840;BME280;15207;42.182;24.308;2023-10-08T06:55:08;99401.91;;;19.10;37.84
27840;BME280;15207;42.182;24.308;2023-10-08T06:57:37;99406.44;;;19.34;38.08
27840;BME280;15207;42.182;24.308;2023-10-08T07:00:04;99399.69;;;19.53;36.20
27840;BME280;15207;42.182;24.308;2023-10-08T07:02:50;99399.81;;;19.68;38.00
27840;BME280;15207;42.182;24.308;2023-10-08T07:05:19;99398.47;;;19.64;37.31
27840;BME280;15207;42.182;24.308;2023-10-08T07:07:47;99397.72;;;19.79;35.37
27840;BME280;15207;42.182;24.308;2023-10-08T07:10:13;99397.88;;;19.77;35.37
27840;BME280;15207;42.182;24.308;2023-10-08T07:12:38;99398.78;;;19.93;35.01
27840;BME280;15207;42.182;24.308;2023-10-08T07:15:05;99400.75;;;20.07;35.48
27840;BME280;15207;42.182;24.308;2023-10-08T07:17:36;99404.38;;;20.23;35.72
27840;BME280;15207;42.182;24.308;2023-10-08T07:20:08;99391.78;;;20.45;35.01
27840;BME280;15207;42.182;24.308;2023-10-08T07:22:47;99402.53;;;20.77;34.53
27840;BME280;15207;42.182;24.308;2023-10-08T07:25:21;99394.59;;;20.91;33.87
27840;BME280;15207;42.182;24.308;2023-10-08T07:27:46;99390.09;;;20.98;33.99
27840;BME280;15207;42.182;24.308;2023-10-08T07:30:12;99381.47;;;20.94;34.00
27840;BME280;15207;42.182;24.308;2023-10-08T07:32:39;99386.84;;;20.79;34.27
27840;BME280;15207;42.182;24.308;2023-10-08T07:35:05;99386.34;;;20.99;34.32
27840;BME280;15207;42.182;24.308;2023-10-08T07:37:45;99380.09;;;21.35;33.65
27840;BME280;15207;42.182;24.308;2023-10-08T07:40:13;99378.16;;;21.66;33.62
27840;BME280;15207;42.182;24.308;2023-10-08T07:42:40;99380.59;;;21.76;33.42
27840;BME280;15207;42.182;24.308;2023-10-08T07:45:05;99370.31;;;21.93;33.37
27840;BME280;15207;42.182;24.308;2023-10-08T07:47:31;99356.94;;;22.20;32.51
27840;BME280;15207;42.182;24.308;2023-10-08T07:49:56;99364.88;;;22.43;32.58
27840;BME280;15207;42.182;24.308;2023-10-08T07:52:24;99370.56;;;22.70;31.29
27840;BME280;15207;42.182;24.308;2023-10-08T07:54:50;99356.13;;;22.77;31.38
27840;BME280;15207;42.182;24.308;2023-10-08T07:57:15;99353.38;;;23.19;30.52
27840;BME280;15207;42.182;24.308;2023-10-08T07:59:51;99356.94;;;23.61;30.22
27840;BME280;15207;42.182;24.308;2023-10-08T08:02:19;99342.72;;;24.00;29.91
27840;BME280;15207;42.182;24.308;2023-10-08T08:04:51;99336.88;;;24.30;28.47
27840;BME280;15207;42.182;24.308;2023-10-08T08:07:18;99331.78;;;24.54;28.66
27840;BME280;15207;42.182;24.308;2023-10-08T08:09:46;99323.13;;;24.70;28.26
27840;BME280;15207;42.182;24.308;2023-10-08T08:12:23;99322.28;;;24.77;28.12
27840;BME280;15207;42.182;24.308;2023-10-08T08:14:51;99318.03;;;24.94;27.53
27840;BME280;15207;42.182;24.308;2023-10-08T08:17:21;99318.59;;;25.10;27.65
27840;BME280;15207;42.182;24.308;2023-10-08T08:19:49;99312.63;;;25.33;27.63
27840;BME280;15207;42.182;24.308;2023-10-08T08:22:15;99312.16;;;25.36;26.99
27840;BME280;15207;42.182;24.308;2023-10-08T08:24:52;99308.06;;;25.59;26.71
27840;BME280;15207;42.182;24.308;2023-10-08T08:27:20;99305.63;;;25.77;26.47
27840;BME280;15207;42.182;24.308;2023-10-08T08:29:52;99293.03;;;25.94;26.63
27840;BME280;15207;42.182;24.308;2023-10-08T08:32:22;99291.72;;;26.04;25.69
27840;BME280;15207;42.182;24.308;2023-10-08T08:34:48;99296.63;;;25.95;25.65
27840;BME280;15207;42.182;24.308;2023-10-08T08:37:19;99289.34;;;26.07;26.00
27840;BME280;15207;42.182;24.308;2023-10-08T08:39:48;99288.81;;;26.24;26.32
27840;BME280;15207;42.182;24.308;2023-10-08T08:42:14;99278.94;;;26.41;25.77
27840;BME280;15207;42.182;24.308;2023-10-08T08:44:43;99277.00;;;26.49;25.86
27840;BME280;15207;42.182;24.308;2023-10-08T08:47:12;99274.78;;;26.76;25.49
27840;BME280;15207;42.182;24.308;2023-10-08T08:49:43;99278.13;;;26.41;26.28
27840;BME280;15207;42.182;24.308;2023-10-08T08:52:09;99265.75;;;26.32;26.89
27840;BME280;15207;42.182;24.308;2023-10-08T08:54:34;99268.63;;;26.11;26.44
27840;BME280;15207;42.182;24.308;2023-10-08T08:57:03;99269.53;;;26.31;27.62
27840;BME280;15207;42.182;24.308;2023-10-08T08:59:29;99262.16;;;26.31;27.32
27840;BME280;15207;42.182;24.308;2023-10-08T09:01:57;99258.84;;;26.22;27.22
27840;BME280;15207;42.182;24.308;2023-10-08T09:04:30;99245.94;;;26.48;27.27
27840;BME280;15207;42.182;24.308;2023-10-08T09:06:58;99244.66;;;26.51;27.51
27840;BME280;15207;42.182;24.308;2023-10-08T09:09:33;99236.56;;;26.56;28.18
27840;BME280;15207;42.182;24.308;2023-10-08T09:11:59;99244.03;;;26.67;26.37
27840;BME280;15207;42.182;24.308;2023-10-08T09:14:26;99235.28;;;26.96;26.83
27840;BME280;15207;42.182;24.308;2023-10-08T09:16:52;99227.47;;;27.12;27.00
27840;BME280;15207;42.182;24.308;2023-10-08T09:19:20;99223.72;;;27.06;27.18
27840;BME280;15207;42.182;24.308;2023-10-08T09:24:29;99224.94;;;27.10;27.54
27840;BME280;15207;42.182;24.308;2023-10-08T09:26:54;99217.34;;;26.93;27.59
27840;BME280;15207;42.182;24.308;2023-10-08T09:29:23;99208.47;;;26.91;27.78
27840;BME280;15207;42.182;24.308;2023-10-08T09:31:59;99210.84;;;27.06;28.29
27840;BME280;15207;42.182;24.308;2023-10-08T09:34:29;99210.41;;;27.22;27.76
27840;BME280;15207;42.182;24.308;2023-10-08T09:36:59;99212.91;;;27.23;27.00
27840;BME280;15207;42.182;24.308;2023-10-08T09:39:29;99195.84;;;27.33;27.54
27840;BME280;15207;42.182;24.308;2023-10-08T09:42:02;99209.09;;;27.24;27.43
27840;BME280;15207;42.182;24.308;2023-10-08T09:44:28;99193.88;;;27.52;27.41
27840;BME280;15207;42.182;24.308;2023-10-08T09:49:31;99188.69;;;27.87;27.25
27840;BME280;15207;42.182;24.308;2023-10-08T09:52:02;99187.38;;;27.89;27.40
27840;BME280;15207;42.182;24.308;2023-10-08T09:54:29;99180.91;;;27.95;27.33
27840;BME280;15207;42.182;24.308;2023-10-08T09:57:02;99188.44;;;28.12;27.37
27840;BME280;15207;42.182;24.308;2023-10-08T09:59:29;99179.38;;;27.99;26.85
27840;BME280;15207;42.182;24.308;2023-10-08T10:01:54;99180.78;;;28.14;27.24
27840;BME280;15207;42.182;24.308;2023-10-08T10:04:24;99175.66;;;28.06;27.14
27840;BME280;15207;42.182;24.308;2023-10-08T10:06:50;99179.34;;;28.11;27.43
27840;BME280;15207;42.182;24.308;2023-10-08T10:09:23;99184.88;;;27.99;27.20
27840;BME280;15207;42.182;24.308;2023-10-08T10:11:50;99176.13;;;28.03;26.92
27840;BME280;15207;42.182;24.308;2023-10-08T10:14:18;99172.66;;;27.83;26.70
27840;BME280;15207;42.182;24.308;2023-10-08T10:16:48;99164.88;;;27.80;27.11
27840;BME280;15207;42.182;24.308;2023-10-08T10:19:17;99168.00;;;27.84;26.90
27840;BME280;15207;42.182;24.308;2023-10-08T10:21:46;99170.16;;;27.94;26.04
27840;BME280;15207;42.182;24.308;2023-10-08T10:24:35;99154.72;;;27.93;26.71
27840;BME280;15207;42.182;24.308;2023-10-08T10:27:15;99157.69;;;28.15;26.54
27840;BME280;15207;42.182;24.308;2023-10-08T10:29:43;99168.94;;;28.02;27.04
27840;BME280;15207;42.182;24.308;2023-10-08T10:32:13;99167.75;;;27.97;26.32
27840;BME280;15207;42.182;24.308;2023-10-08T10:34:44;99147.78;;;28.02;26.68
27840;BME280;15207;42.182;24.308;2023-10-08T10:37:12;99158.19;;;28.00;26.89
27840;BME280;15207;42.182;24.308;2023-10-08T10:39:57;99142.16;;;28.09;26.36
27840;BME280;15207;42.182;24.308;2023-10-08T10:42:26;99140.34;;;28.15;26.80
27840;BME280;15207;42.182;24.308;2023-10-08T10:44:54;99135.09;;;28.25;27.35
27840;BME280;15207;42.182;24.308;2023-10-08T10:47:22;99129.03;;;28.52;27.04
27840;BME280;15207;42.182;24.308;2023-10-08T10:49:49;99132.94;;;28.56;26.42
27840;BME280;15207;42.182;24.308;2023-10-08T10:52:22;99124.88;;;28.49;26.34
27840;BME280;15207;42.182;24.308;2023-10-08T10:55:07;99125.81;;;28.43;26.71
27840;BME280;15207;42.182;24.308;2023-10-08T10:57:53;99123.38;;;28.30;25.97
27840;BME280;15207;42.182;24.308;2023-10-08T11:00:26;99112.09;;;28.19;26.01
27840;BME280;15207;42.182;24.308;2023-10-08T11:02:58;99117.34;;;28.33;26.91
27840;BME280;15207;42.182;24.308;2023-10-08T11:05:57;99114.56;;;28.45;26.80
27840;BME280;15207;42.182;24.308;2023-10-08T11:08:31;99106.31;;;28.45;26.44
27840;BME280;15207;42.182;24.308;2023-10-08T11:11:00;99107.63;;;28.42;26.74
27840;BME280;15207;42.182;24.308;2023-10-08T11:13:31;99099.81;;;28.51;26.26
27840;BME280;15207;42.182;24.308;2023-10-08T11:16:03;99099.25;;;28.49;27.13
27840;BME280;15207;42.182;24.308;2023-10-08T11:18:29;99097.56;;;28.48;26.66
27840;BME280;15207;42.182;24.308;2023-10-08T11:21:06;99085.72;;;28.47;26.68
27840;BME280;15207;42.182;24.308;2023-10-08T11:23:52;99087.28;;;28.43;26.88
27840;BME280;15207;42.182;24.308;2023-10-08T11:26:18;99082.03;;;28.42;26.79
27840;BME280;15207;42.182;24.308;2023-10-08T11:28:44;99082.03;;;28.42;26.91
27840;BME280;15207;42.182;24.308;2023-10-08T11:31:16;99069.94;;;28.43;27.56
27840;BME280;15207;42.182;24.308;2023-10-08T11:33:46;99069.47;;;28.34;27.47
27840;BME280;15207;42.182;24.308;2023-10-08T11:36:22;99063.81;;;28.41;28.15
27840;BME280;15207;42.182;24.308;2023-10-08T11:38:56;99058.03;;;28.54;26.86
27840;BME280;15207;42.182;24.308;2023-10-08T11:41:33;99054.50;;;28.42;27.08
27840;BME280;15207;42.182;24.308;2023-10-08T11:44:15;99057.13;;;28.36;27.54
27840;BME280;15207;42.182;24.308;2023-10-08T11:46:45;99060.78;;;28.25;26.80
27840;BME280;15207;42.182;24.308;2023-10-08T11:49:11;99048.69;;;28.26;27.48
27840;BME280;15207;42.182;24.308;2023-10-08T11:51:43;99050.72;;;28.31;27.46
27840;BME280;15207;42.182;24.308;2023-10-08T11:54:09;99050.44;;;28.44;26.87
27840;BME280;15207;42.182;24.308;2023-10-08T11:56:37;99046.63;;;28.33;27.26
27840;BME280;15207;42.182;24.308;2023-10-08T11:59:03;99051.25;;;28.45;27.55
27840;BME280;15207;42.182;24.308;2023-10-08T12:01:34;99044.06;;;28.44;27.47
27840;BME280;15207;42.182;24.308;2023-10-08T12:04:02;99043.28;;;28.31;27.37
27840;BME280;15207;42.182;24.308;2023-10-08T12:06:27;99029.88;;;28.35;26.62
27840;BME280;15207;42.182;24.308;2023-10-08T12:08:56;99041.31;;;28.44;26.32
27840;BME280;15207;42.182;24.308;2023-10-08T12:11:24;99039.38;;;28.27;26.97
27840;BME280;15207;42.182;24.308;2023-10-08T12:13:56;99028.47;;;28.20;26.40
27840;BME280;15207;42.182;24.308;2023-10-08T12:16:22;99030.13;;;28.21;26.50
27840;BME280;15207;42.182;24.308;2023-10-08T12:18:48;99028.13;;;28.17;27.56
27840;BME280;15207;42.182;24.308;2023-10-08T12:21:15;99027.22;;;28.40;27.34
27840;BME280;15207;42.182;24.308;2023-10-08T12:23:41;99017.97;;;28.46;26.94
27840;BME280;15207;42.182;24.308;2023-10-08T12:26:15;99017.03;;;28.41;26.80
27840;BME280;15207;42.182;24.308;2023-10-08T12:28:42;99018.38;;;28.38;26.73
27840;BME280;15207;42.182;24.308;2023-10-08T12:31:13;99015.28;;;28.34;27.42
27840;BME280;15207;42.182;24.308;2023-10-08T12:33:41;99020.44;;;28.31;27.01
27840;BME280;15207;42.182;24.308;2023-10-08T12:36:10;99016.84;;;28.18;27.76
27840;BME280;15207;42.182;24.308;2023-10-08T12:38:37;99014.59;;;28.15;27.68
27840;BME280;15207;42.182;24.308;2023-10-08T12:41:03;99015.53;;;28.21;27.77
27840;BME280;15207;42.182;24.308;2023-10-08T12:43:37;99011.34;;;28.18;27.12
27840;BME280;15207;42.182;24.308;2023-10-08T12:46:04;99008.25;;;28.27;26.74
27840;BME280;15207;42.182;24.308;2023-10-08T12:48:36;99011.84;;;28.27;27.89
27840;BME280;15207;42.182;24.308;2023-10-08T12:51:02;99001.19;;;28.19;27.49
27840;BME280;15207;42.182;24.308;2023-10-08T12:53:31;99005.84;;;28.18;28.20
27840;BME280;15207;42.182;24.308;2023-10-08T12:56:03;99005.25;;;28.28;28.38
27840;BME280;15207;42.182;24.308;2023-10-08T12:58:34;99008.25;;;28.27;28.06
27840;BME280;15207;42.182;24.308;2023-10-08T13:01:13;99012.28;;;28.36;28.30
27840;BME280;15207;42.182;24.308;2023-10-08T13:03:42;99001.84;;;28.38;28.06
27840;BME280;15207;42.182;24.308;2023-10-08T13:06:10;99006.13;;;28.46;28.28
27840;BME280;15207;42.182;24.308;2023-10-08T13:08:40;99001.75;;;28.33;27.42
27840;BME280;15207;42.182;24.308;2023-10-08T13:11:06;98999.44;;;28.12;28.18
27840;BME280;15207;42.182;24.308;2023-10-08T13:13:32;99000.91;;;27.91;29.10
27840;BME280;15207;42.182;24.308;2023-10-08T13:15:58;98994.56;;;27.91;28.44
27840;BME280;15207;42.182;24.308;2023-10-08T13:18:26;98990.25;;;27.95;28.14